Time;durP1;ratioP1;P1;durP2;ratioP2;P2;SDS_P1;SDS_P2;PMS_P1;PMS_P2;Temp;Humidity;BMP_temperature;BMP_pressure;BME280_temperature;BME280_humidity;BME280_pressure;Samples;Min_cycle;Max_cycle;Signal;HPM_P1;HPM_P2
2022/10/20 00:03:37;;;;;;;6.17;3.22;;;;;;;3.87;79.19;101594.92;3353072;82;21134;-72
2022/10/20 00:08:29;;;;;;;4.83;3.30;;;;;;;3.84;79.35;101592.16;3434598;81;20980;-72
2022/10/20 00:13:20;;;;;;;6.10;3.80;;;;;;;3.84;79.63;101597.30;3432451;80;21134;-72
2022/10/20 00:18:11;;;;;;;8.08;4.53;;;;;;;3.82;79.66;101605.81;3376017;82;21003;-71
2022/10/20 00:23:02;;;;;;;6.35;4.37;;;;;;;3.82;79.56;101608.38;3410217;81;20934;-71
2022/10/20 00:27:53;;;;;;;3.75;3.25;;;;;;;3.78;79.40;101609.02;3413947;81;21194;-72
2022/10/20 00:32:46;;;;;;;7.47;4.15;;;;;;;3.76;79.72;101608.04;3427664;80;20928;-71
2022/10/20 00:37:38;;;;;;;5.72;3.60;;;;;;;3.75;79.70;101604.08;3390248;80;20988;-72
2022/10/20 00:42:29;;;;;;;5.20;3.70;;;;;;;3.69;79.56;101596.90;3429804;81;21018;-72
2022/10/20 00:47:46;;;;;;;5.45;2.72;;;;;;;3.63;79.56;101608.09;3426106;80;20924;-72
2022/10/20 00:52:40;;;;;;;4.50;3.70;;;;;;;3.60;79.68;101600.22;3476678;80;21478;-72
2022/10/20 00:57:32;;;;;;;4.65;3.08;;;;;;;3.55;79.66;101602.91;3378117;80;21560;-72
2022/10/20 01:02:23;;;;;;;3.80;3.25;;;;;;;3.53;79.71;101600.66;3441649;80;21222;-72
2022/10/20 01:07:14;;;;;;;4.45;3.47;;;;;;;3.48;79.39;101602.06;3365346;80;21467;-72
2022/10/20 01:12:26;;;;;;;3.17;2.87;;;;;;;3.41;79.34;101593.08;3383647;80;21062;-72
2022/10/20 01:17:23;;;;;;;3.85;3.37;;;;;;;3.34;78.97;101596.08;3422209;80;22728;-72
2022/10/20 01:22:44;;;;;;;5.12;2.70;;;;;;;3.23;79.04;101601.86;3453714;80;21620;-72
2022/10/20 01:27:46;;;;;;;5.65;3.37;;;;;;;3.18;79.27;101599.40;3415019;80;21098;-71
2022/10/20 01:33:02;;;;;;;3.02;2.72;;;;;;;3.14;79.49;101594.88;3468242;80;21546;-72
2022/10/20 01:38:20;;;;;;;5.87;3.08;;;;;;;3.12;79.15;101596.47;3447764;80;20995;-72
2022/10/20 01:43:12;;;;;;;;;;;;;;;3.08;79.48;101604.77;3394365;80;20976;-72
2022/10/20 01:48:07;;;;;;;6.15;2.65;;;;;;;3.08;79.78;101598.34;3423037;80;20317;-71
2022/10/20 01:52:59;;;;;;;3.90;3.42;;;;;;;3.03;79.53;101604.09;3424981;81;21018;-72
2022/10/20 01:58:29;;;;;;;3.95;3.00;;;;;;;2.99;79.64;101600.86;3342432;81;21089;-72
2022/10/20 02:03:50;;;;;;;4.47;3.30;;;;;;;2.98;79.62;101608.05;3421452;81;21529;-72
2022/10/20 02:08:58;;;;;;;3.60;3.25;;;;;;;2.94;79.87;101594.54;3433261;80;21115;-72
2022/10/20 02:13:53;;;;;;;5.15;3.33;;;;;;;2.93;79.83;101595.72;3466958;80;21019;-72
2022/10/20 02:18:47;;;;;;;4.42;3.22;;;;;;;2.84;79.71;101596.03;3400955;80;21256;-71
2022/10/20 02:23:43;;;;;;;12.28;3.42;;;;;;;2.76;79.48;101595.98;3391539;80;20976;-72
2022/10/20 02:28:38;;;;;;;3.05;2.70;;;;;;;2.66;79.37;101592.84;3436882;80;20952;-72
2022/10/20 02:33:30;;;;;;;4.33;2.37;;;;;;;2.58;79.17;101591.86;3426738;80;21845;-71
2022/10/20 02:38:22;;;;;;;6.78;3.17;;;;;;;2.50;79.40;101589.19;3407719;81;20989;-72
2022/10/20 02:43:13;;;;;;;3.75;2.75;;;;;;;2.40;79.34;101592.45;3419160;80;21075;-72
2022/10/20 02:48:06;;;;;;;4.37;3.10;;;;;;;2.31;79.09;101600.86;3445489;81;21027;-72
2022/10/20 02:52:57;;;;;;;5.10;3.02;;;;;;;2.24;79.12;101608.55;3448209;80;21522;-71
2022/10/20 02:57:49;;;;;;;4.25;3.22;;;;;;;2.16;79.03;101608.42;3394069;80;21352;-72
2022/10/20 03:02:41;;;;;;;5.30;3.27;;;;;;;2.01;78.75;101608.72;3402003;80;21469;-71
2022/10/20 03:07:33;;;;;;;3.60;2.98;;;;;;;1.96;79.04;101608.81;3422270;80;20961;-72
2022/10/20 03:12:24;;;;;;;3.85;3.30;;;;;;;1.94;79.02;101609.11;3395814;80;21434;-70
2022/10/20 03:17:15;;;;;;;4.92;3.10;;;;;;;1.80;78.28;101615.88;3410870;80;20952;-71
2022/10/20 03:22:07;;;;;;;3.70;2.65;;;;;;;1.64;78.52;101609.71;3398442;80;22378;-72
2022/10/20 03:26:58;;;;;;;3.42;3.12;;;;;;;1.61;78.87;101621.43;3414040;81;20995;-71
2022/10/20 03:31:49;;;;;;;4.53;3.02;;;;;;;1.60;78.99;101613.27;3396691;80;21050;-71
2022/10/20 03:36:40;;;;;;;5.08;4.33;;;;;;;1.56;78.75;101612.54;3417261;80;21019;-72
2022/10/20 03:41:32;;;;;;;5.50;2.85;;;;;;;1.52;78.55;101618.77;3463287;80;21015;-72
2022/10/20 03:46:23;;;;;;;3.50;2.92;;;;;;;1.45;78.39;101626.82;3421912;80;21004;-71
2022/10/20 03:51:14;;;;;;;5.65;2.87;;;;;;;1.35;78.40;101632.09;3384767;80;20981;-71
2022/10/20 03:56:09;;;;;;;3.75;2.58;;;;;;;1.29;78.28;101631.69;3420538;80;21537;-71
2022/10/20 04:01:01;;;;;;;2.65;2.27;;;;;;;1.17;78.45;101638.52;3442026;80;21019;-72
2022/10/20 04:05:53;;;;;;;6.80;3.40;;;;;;;1.12;78.66;101636.50;3410295;80;20978;-71
2022/10/20 04:10:44;;;;;;;6.70;3.15;;;;;;;1.09;78.62;101637.95;3414698;80;21569;-72
2022/10/20 04:15:35;;;;;;;7.70;3.30;;;;;;;1.04;78.58;101641.86;3419005;81;20998;-71
2022/10/20 04:20:26;;;;;;;4.10;2.92;;;;;;;0.98;78.57;101642.33;3371989;80;20972;-72
2022/10/20 04:25:18;;;;;;;6.78;3.12;;;;;;;0.94;78.63;101642.91;3435565;81;21034;-72
2022/10/20 04:30:09;;;;;;;3.40;2.77;;;;;;;0.90;78.55;101646.92;3424523;81;20956;-72
2022/10/20 04:35:01;;;;;;;5.80;2.92;;;;;;;0.83;78.37;101649.83;3400397;80;21050;-72
2022/10/20 04:39:52;;;;;;;5.22;3.22;;;;;;;0.77;78.47;101644.28;3417087;80;20991;-73
2022/10/20 04:44:45;;;;;;;5.10;3.45;;;;;;;0.72;78.38;101656.74;3449784;81;20972;-72
2022/10/20 04:49:41;;;;;;;7.30;3.30;;;;;;;0.64;78.44;101662.09;3379504;80;21019;-74
2022/10/20 05:00:49;;;;;;;5.47;2.90;;;;;;;0.58;78.40;101666.38;3225356;87;20466;-73
2022/10/20 05:05:39;;;;;;;4.90;3.02;;;;;;;0.57;78.75;101656.91;3319213;84;21113;-72
2022/10/20 05:10:24;;;;;;;6.53;3.22;;;;;;;0.57;78.61;101662.02;3289527;84;21035;-72
2022/10/20 05:15:17;;;;;;;3.25;2.92;;;;;;;0.51;78.54;101670.55;3300478;84;20953;-72
2022/10/20 05:20:09;;;;;;;3.60;2.85;;;;;;;0.45;78.57;101682.88;3341727;83;22101;-72
2022/10/20 05:25:00;;;;;;;7.58;3.27;;;;;;;0.49;78.69;101677.23;3272689;83;21109;-73
2022/10/20 05:29:51;;;;;;;6.58;3.27;;;;;;;0.50;78.62;101676.44;3308112;83;20990;-72
2022/10/20 05:34:42;;;;;;;4.83;3.83;;;;;;;0.57;79.06;101676.10;3318734;84;21887;-72
2022/10/20 05:39:34;;;;;;;5.67;3.60;;;;;;;0.56;78.55;101678.18;3274357;83;21071;-72
2022/10/20 05:44:25;;;;;;;6.55;3.42;;;;;;;0.54;78.57;101683.58;3280738;83;20961;-72
2022/10/20 05:49:16;;;;;;;7.67;3.98;;;;;;;0.59;78.74;101691.57;3285282;85;21208;-72
2022/10/20 05:54:11;;;;;;;8.80;4.67;;;;;;;0.54;78.77;101697.25;3456673;79;20969;-73
2022/10/20 05:59:02;;;;;;;5.78;3.90;;;;;;;0.60;79.12;101709.61;3548828;79;20919;-72
2022/10/20 06:03:57;;;;;;;11.97;4.58;;;;;;;0.66;78.94;101712.63;3490381;79;20990;-72
2022/10/20 06:08:49;;;;;;;10.95;4.70;;;;;;;0.72;79.03;101727.14;3465848;79;21528;-72
2022/10/20 06:13:41;;;;;;;8.23;4.75;;;;;;;0.78;79.13;101724.53;3499505;78;22470;-72
2022/10/20 06:18:33;;;;;;;11.90;5.03;;;;;;;0.83;79.22;101725.75;3485563;79;21804;-73
2022/10/20 06:23:24;;;;;;;8.05;4.95;;;;;;;0.86;79.17;101727.23;3507821;78;20995;-72
2022/10/20 06:28:16;;;;;;;12.65;5.05;;;;;;;0.93;79.28;101730.73;3543071;78;20893;-72
2022/10/20 06:33:11;;;;;;;8.90;5.15;;;;;;;1.02;79.44;101737.83;3543617;78;21064;-72
2022/10/20 06:38:00;;;;;;;9.48;4.45;;;;;;;1.09;79.50;101737.48;3467603;78;21742;-73
2022/10/20 06:42:51;;;;;;;9.08;4.50;;;;;;;1.25;79.34;101741.12;3495749;79;20972;-72
2022/10/20 06:47:42;;;;;;;7.87;4.50;;;;;;;1.46;79.32;101737.50;3510177;78;20927;-72
2022/10/20 06:52:33;;;;;;;9.18;5.35;;;;;;;1.50;79.43;101738.23;3478715;79;21219;-72
2022/10/20 06:57:24;;;;;;;7.75;5.40;;;;;;;1.56;79.53;101748.02;3485465;79;21340;-72
2022/10/20 07:08:00;;;;;;;9.17;5.73;;;;;;;1.71;79.67;101755.48;3523624;78;21317;-73
2022/10/20 07:19:06;;;;;;;14.40;6.47;;;;;;;1.93;79.77;101760.80;3323814;83;21022;-72
2022/10/20 07:24:05;;;;;;;11.80;7.17;;;;;;;1.99;79.80;101762.52;3233577;86;21012;-72
2022/10/20 07:28:59;;;;;;;10.13;5.65;;;;;;;2.11;80.18;101758.64;3199882;86;21213;-72
2022/10/20 07:34:22;;;;;;;9.20;5.55;;;;;;;2.26;80.42;101765.19;3211616;86;21107;-74
2022/10/20 07:39:27;;;;;;;;;;;;;;;;;;;;;
2022/10/20 07:50:18;;;;;;;8.75;6.28;;;;;;;3.83;78.90;101767.52;3027060;90;21135;-74
2022/10/20 08:17:26;;;;;;;13.55;9.08;;;;;;;6.12;77.22;101767.95;2838331;98;21652;-76
2022/10/20 08:22:19;;;;;;;16.52;12.00;;;;;;;5.95;77.77;101763.14;2835018;98;21330;-73
2022/10/20 08:27:20;;;;;;;;;;;;;;;;;;;;;
2022/10/20 08:32:16;;;;;;;;;;;;;;;;;;;;;
2022/10/20 08:37:09;;;;;;;22.75;18.12;;;;;;;6.95;76.94;101769.50;2846941;98;23654;-76
2022/10/20 08:42:10;;;;;;;27.05;19.70;;;;;;;7.11;76.63;101775.42;2862038;98;21195;-76
2022/10/20 08:48:07;;;;;;;28.90;20.75;;;;;;;7.09;76.33;101773.18;3011994;93;21250;-75
2022/10/20 08:59:05;;;;;;;24.40;19.15;;;;;;;7.94;75.06;101771.09;2931184;94;22474;-75
2022/10/20 09:10:12;;;;;;;26.20;19.12;;;;;;;9.23;74.52;101763.05;2879371;96;20438;-77
2022/10/20 09:15:25;;;;;;;;;;;;;;;;;;;;;
2022/10/20 09:26:15;;;;;;;23.18;16.87;;;;;;;10.30;72.80;101760.55;2900899;96;21115;-74
2022/10/20 09:31:36;;;;;;;21.80;16.27;;;;;;;10.21;73.12;101758.93;3004925;93;21794;-74
2022/10/20 09:36:33;;;;;;;21.40;17.05;;;;;;;12.10;69.57;101757.89;3009023;93;21104;-75
2022/10/20 09:41:34;;;;;;;22.67;17.13;;;;;;;11.52;69.65;101747.95;3028326;92;21985;-75
2022/10/20 09:46:37;;;;;;;23.60;16.07;;;;;;;11.05;70.47;101745.27;3199115;84;20982;-73
2022/10/20 09:51:32;;;;;;;20.27;15.32;;;;;;;10.71;70.58;101748.91;3262274;86;21017;-74
2022/10/20 09:56:33;;;;;;;22.67;18.02;;;;;;;10.41;71.53;101743.14;3362267;83;20987;-74
2022/10/20 10:01:36;;;;;;;20.00;16.20;;;;;;;10.35;70.01;101742.95;3484378;77;20970;-75
2022/10/20 10:06:38;;;;;;;16.42;12.33;;;;;;;10.79;70.42;101743.13;3550494;77;21481;-73
2022/10/20 10:12:25;;;;;;;15.15;10.15;;;;;;;10.76;69.64;101734.34;3316122;82;21009;-75
2022/10/20 10:17:38;;;;;;;12.35;9.48;;;;;;;10.91;69.86;101737.84;3349035;83;21243;-74
2022/10/20 10:22:29;;;;;;;12.63;10.18;;;;;;;10.94;68.75;101736.22;3386571;82;26722;-74
2022/10/20 10:27:25;;;;;;;11.35;9.95;;;;;;;10.79;68.89;101735.75;3326634;82;21007;-74
2022/10/20 10:32:27;;;;;;;11.15;9.95;;;;;;;10.76;69.64;101727.84;3377423;82;21031;-74
2022/10/20 10:37:23;;;;;;;11.28;8.65;;;;;;;11.47;68.11;101720.48;3383385;82;20971;-74
2022/10/20 10:42:27;;;;;;;10.18;6.90;;;;;;;11.58;67.92;101712.98;3366309;83;20996;-74
2022/10/20 10:48:14;;;;;;;11.03;6.53;;;;;;;11.70;68.54;101712.46;3497728;77;21453;-75
2022/10/20 10:53:56;;;;;;;6.60;5.75;;;;;;;12.14;68.01;101707.19;3634749;77;20938;-73
2022/10/20 10:58:57;;;;;;;8.15;5.65;;;;;;;12.58;66.46;101704.81;3637584;77;21056;-74
2022/10/20 11:04:14;;;;;;;6.67;5.25;;;;;;;12.45;65.98;101694.94;3613275;77;20989;-74
2022/10/20 11:09:16;;;;;;;7.12;5.33;;;;;;;12.39;66.22;101693.45;3637817;77;20887;-74
2022/10/20 11:14:30;;;;;;;8.15;5.12;;;;;;;11.79;66.79;101682.33;3467245;80;20928;-74
2022/10/20 11:19:43;;;;;;;6.25;4.30;;;;;;;11.21;67.43;101678.95;3473461;80;21448;-76
2022/10/20 11:24:41;;;;;;;8.28;4.33;;;;;;;10.75;67.59;101685.34;3501136;80;20916;-76
2022/10/20 11:29:43;;;;;;;5.80;4.95;;;;;;;10.41;67.90;101680.35;3480211;80;20971;-74
2022/10/20 11:34:55;;;;;;;6.35;4.58;;;;;;;10.15;68.24;101672.94;3496457;80;21530;-74
2022/10/20 11:40:04;;;;;;;5.95;4.22;;;;;;;9.98;68.33;101672.38;3422646;80;21021;-74
2022/10/20 11:44:59;;;;;;;6.97;4.15;;;;;;;9.87;68.96;101666.80;3486045;80;21640;-74
2022/10/20 11:49:51;;;;;;;8.58;4.33;;;;;;;9.81;69.64;101657.48;3512369;77;21036;-73
2022/10/20 11:55:23;;;;;;;5.47;3.72;;;;;;;9.81;69.66;101653.58;3592983;77;20930;-75
2022/10/20 12:00:22;;;;;;;6.45;3.15;;;;;;;9.82;68.84;101648.88;3620999;77;21082;-73
2022/10/20 12:05:46;;;;;;;4.87;2.80;;;;;;;9.79;68.46;101650.05;3654233;77;21480;-73
2022/10/20 12:11:02;;;;;;;3.50;2.67;;;;;;;9.88;68.30;101641.70;3652657;77;21297;-74
2022/10/20 12:15:54;;;;;;;3.42;2.30;;;;;;;10.00;67.60;101644.73;3634666;76;21368;-73
2022/10/20 12:21:00;;;;;;;3.47;2.10;;;;;;;10.11;67.38;101639.89;3599239;77;20975;-72
2022/10/20 12:25:52;;;;;;;6.07;2.73;;;;;;;10.22;67.28;101629.42;3581435;77;21005;-73
2022/10/20 12:30:43;;;;;;;6.30;3.08;;;;;;;10.30;66.60;101626.67;3593359;77;21437;-73
2022/10/20 12:36:18;;;;;;;6.60;2.85;;;;;;;10.44;67.22;101626.26;3574738;76;21490;-74
2022/10/20 12:41:34;;;;;;;3.40;2.42;;;;;;;10.57;67.38;101624.53;3449093;80;22143;-74
2022/10/20 12:46:30;;;;;;;6.55;4.28;;;;;;;10.58;66.42;101625.41;3436512;80;21120;-74
2022/10/20 12:51:35;;;;;;;6.53;4.53;;;;;;;10.58;66.11;101622.38;3430721;80;20962;-73
2022/10/20 12:56:37;;;;;;;6.40;3.55;;;;;;;10.57;65.93;101616.73;3408270;80;21057;-73
2022/10/20 13:01:29;;;;;;;5.75;3.58;;;;;;;10.64;66.09;101617.38;3395008;80;21333;-73
2022/10/20 13:06:49;;;;;;;5.92;2.85;;;;;;;10.67;65.97;101612.25;3413835;80;21210;-75
2022/10/20 13:29:16;;;;;;;4.95;2.62;;;;;;;10.12;66.55;101603.95;3007911;93;21059;-74
2022/10/20 13:35:02;;;;;;;3.80;2.00;;;;;;;9.85;66.82;101609.12;2990010;93;21078;-74
2022/10/20 13:51:52;;;;;;;5.70;2.70;;;;;;;9.19;68.55;101602.89;2887914;96;21111;-74
2022/10/20 13:57:56;;;;;;;;;;;;;;;;;;;;;
2022/10/20 14:02:44;;;;;;;7.78;3.00;;;;;;;8.80;69.50;101597.58;2938776;93;21259;-75
2022/10/20 14:08:57;;;;;;;;;;;;;;;;;;;;;
2022/10/20 14:13:40;;;;;;;3.77;2.90;;;;;;;8.48;70.48;101595.91;3033573;90;21091;-75
2022/10/20 14:19:03;;;;;;;;;;;;;;;;;;;;;
2022/10/20 14:24:36;;;;;;;5.37;3.67;;;;;;;8.19;71.27;101573.96;3176862;87;21034;-75
2022/10/20 14:29:32;;;;;;;7.65;3.45;;;;;;;8.12;71.66;101589.69;3126698;88;21370;-73
2022/10/20 14:34:36;;;;;;;7.70;3.83;;;;;;;7.98;71.87;101590.41;3186726;88;21629;-74
2022/10/20 14:39:41;;;;;;;5.55;3.62;;;;;;;7.89;72.23;101583.56;3241288;84;20946;-74
2022/10/20 14:44:35;;;;;;;6.70;4.05;;;;;;;7.81;72.60;101581.05;3360587;83;21005;-75
2022/10/20 14:49:33;;;;;;;6.58;3.50;;;;;;;7.67;72.97;101573.98;3266223;85;21047;-76
2022/10/20 14:54:34;;;;;;;9.63;3.98;;;;;;;7.60;73.34;101576.74;3387962;83;21004;-74
2022/10/20 14:59:29;;;;;;;8.25;3.30;;;;;;;7.50;73.55;101574.57;3350973;83;21085;-74
2022/10/20 15:04:29;;;;;;;8.73;3.85;;;;;;;7.44;73.77;101571.73;3521609;77;21002;-74
2022/10/20 15:09:33;;;;;;;5.70;3.50;;;;;;;7.35;74.05;101556.69;3609647;77;21102;-74
2022/10/20 15:14:30;;;;;;;5.83;3.83;;;;;;;7.28;74.33;101553.75;3627978;77;20987;-75
2022/10/20 15:19:44;;;;;;;;;;;;;;;;;;;;;
2022/10/20 15:24:29;;;;;;;10.48;4.83;;;;;;;7.09;74.85;101550.36;3629626;77;20959;-74
2022/10/20 15:34:55;;;;;;;11.22;3.33;;;;;;;6.94;75.14;101547.08;3319345;84;21635;-72
2022/10/20 15:39:50;;;;;;;4.67;4.03;;;;;;;6.83;75.46;101546.59;3291521;84;20965;-73
2022/10/20 15:44:46;;;;;;;8.85;3.92;;;;;;;6.74;75.62;101541.88;3263951;83;21504;-74
2022/10/20 15:49:39;;;;;;;6.67;4.03;;;;;;;6.66;75.68;101543.25;3303049;84;21540;-73
2022/10/20 15:55:00;;;;;;;5.50;4.12;;;;;;;6.61;75.97;101542.16;3252033;85;21071;-73
2022/10/20 15:59:44;;;;;;;36.10;21.57;;;;;;;6.56;76.17;101546.22;3260146;84;20999;-73
2022/10/20 16:04:55;;;;;;;17.80;10.60;;;;;;;6.49;76.43;101539.87;3231790;84;21113;-74
2022/10/20 16:09:47;;;;;;;10.68;7.00;;;;;;;6.41;76.55;101544.69;3177856;87;21675;-74
2022/10/20 16:14:38;;;;;;;21.20;14.68;;;;;;;6.26;76.59;101544.86;3229224;86;21758;-74
2022/10/20 16:19:38;;;;;;;14.73;8.35;;;;;;;6.16;76.65;101546.92;3164291;87;21581;-75
2022/10/20 16:24:52;;;;;;;15.08;9.23;;;;;;;6.03;76.62;101548.91;3273101;84;20999;-74
2022/10/20 16:29:43;;;;;;;16.15;10.45;;;;;;;5.86;76.64;101549.33;3454055;80;20966;-72
2022/10/20 16:34:34;;;;;;;15.38;11.33;;;;;;;5.76;76.96;101560.41;3418192;81;21595;-72
2022/10/20 16:39:29;;;;;;;17.10;11.00;;;;;;;5.64;76.76;101560.28;3361300;81;20965;-74
2022/10/20 16:44:23;;;;;;;27.67;14.68;;;;;;;5.52;76.95;101558.37;3502231;78;21027;-72
2022/10/20 16:49:19;;;;;;;31.35;20.08;;;;;;;5.42;77.04;101563.85;3576596;78;40180;-73
2022/10/20 16:54:15;;;;;;;34.35;18.12;;;;;;;5.30;77.02;101562.42;3585931;78;21019;-72
2022/10/20 16:59:10;;;;;;;16.37;10.30;;;;;;;5.23;77.11;101558.17;3604367;78;22325;-73
2022/10/20 17:04:07;;;;;;;23.20;16.80;;;;;;;5.14;77.21;101564.60;3556910;77;21010;-73
2022/10/20 17:08:58;;;;;;;19.20;14.85;;;;;;;5.07;77.17;101561.63;3594793;78;20994;-72
2022/10/20 17:13:58;;;;;;;20.15;13.85;;;;;;;5.01;77.45;101557.42;3612219;76;22298;-72
2022/10/20 17:18:56;;;;;;;19.23;15.40;;;;;;;4.95;77.26;101558.90;3593829;78;20948;-73
2022/10/20 17:23:52;;;;;;;25.48;18.37;;;;;;;4.87;77.44;101560.16;3563810;78;21809;-73
2022/10/20 17:28:46;;;;;;;26.33;17.77;;;;;;;4.76;77.12;101566.44;3615979;77;21594;-73
2022/10/20 17:33:43;;;;;;;27.55;19.05;;;;;;;4.58;76.94;101568.49;3587955;77;20956;-72
2022/10/20 17:38:38;;;;;;;21.95;18.05;;;;;;;4.43;77.07;101563.77;3640913;77;20932;-74
2022/10/20 17:43:28;;;;;;;23.07;17.73;;;;;;;4.33;77.16;101561.11;3569976;77;21003;-72
2022/10/20 17:48:19;;;;;;;21.42;16.07;;;;;;;4.18;77.07;101558.53;3572385;78;22078;-73
2022/10/20 17:53:13;;;;;;;23.15;17.48;;;;;;;4.10;77.31;101566.24;3593328;78;20979;-72
2022/10/20 17:58:04;;;;;;;18.25;14.00;;;;;;;3.98;76.95;101562.97;3576111;77;21521;-73
2022/10/20 18:02:57;;;;;;;24.12;16.97;;;;;;;3.87;77.00;101566.63;3551838;77;20977;-72
2022/10/20 18:07:49;;;;;;;22.13;14.23;;;;;;;3.72;76.91;101559.80;3503170;77;21477;-73
2022/10/20 18:12:40;;;;;;;22.77;16.17;;;;;;;3.61;76.88;101561.74;3578581;77;21432;-73
2022/10/20 18:17:31;;;;;;;33.75;23.73;;;;;;;3.49;76.74;101562.67;3549817;78;20898;-73
2022/10/20 18:22:23;;;;;;;25.68;15.85;;;;;;;3.41;77.00;101566.09;3516288;78;20966;-73
2022/10/20 18:27:14;;;;;;;30.55;19.73;;;;;;;3.28;76.92;101561.91;3561650;78;21028;-73
2022/10/20 18:32:05;;;;;;;31.00;19.12;;;;;;;3.23;77.09;101559.45;3541002;77;20972;-73
2022/10/20 18:36:56;;;;;;;36.95;25.17;;;;;;;3.13;76.82;101554.55;3595428;77;20940;-73
2022/10/20 18:41:51;;;;;;;26.40;18.87;;;;;;;3.03;77.08;101551.42;3480066;79;20971;-72
2022/10/20 18:46:44;;;;;;;38.20;27.07;;;;;;;2.96;76.71;101542.85;3447803;80;20998;-72
2022/10/20 18:51:36;;;;;;;41.33;25.82;;;;;;;2.86;76.56;101558.48;3575206;77;21015;-73
2022/10/20 18:56:29;;;;;;;49.70;31.07;;;;;;;2.78;76.81;101562.28;3574981;77;21489;-72
2022/10/20 19:01:25;;;;;;;57.80;32.35;;;;;;;2.72;76.91;101559.31;3580261;77;23251;-73
2022/10/20 19:06:45;;;;;;;45.90;31.33;;;;;;;2.58;76.61;101561.92;3580167;77;22001;-74
2022/10/20 19:12:10;;;;;;;51.70;31.15;;;;;;;2.51;76.96;101566.19;3610701;77;20912;-73
2022/10/20 19:17:11;;;;;;;39.60;25.92;;;;;;;2.46;77.13;101563.72;3621434;77;21009;-73
2022/10/20 19:22:04;;;;;;;38.17;27.73;;;;;;;2.37;77.03;101564.42;3585457;77;20948;-74
2022/10/20 19:32:50;;;;;;;50.55;30.00;;;;;;;2.28;77.12;101552.77;3410545;81;28588;-75
2022/10/20 19:38:18;;;;;;;56.08;34.03;;;;;;;2.20;76.73;101568.09;3389696;81;21005;-75
2022/10/20 19:43:25;;;;;;;70.32;36.55;;;;;;;2.09;76.86;101571.24;3387311;80;21017;-73
2022/10/20 19:48:51;;;;;;;54.98;32.03;;;;;;;1.99;77.07;101561.16;3262335;85;20974;-74
2022/10/20 19:54:23;;;;;;;46.25;28.42;;;;;;;1.98;77.25;101570.92;3219467;87;21295;-74
2022/10/20 19:59:19;;;;;;;53.28;32.33;;;;;;;1.97;77.13;101573.01;3175719;87;21122;-76
2022/10/20 20:10:10;;;;;;;;;;;;;;;;;;;;;
2022/10/20 20:15:12;;;;;;;58.58;30.35;;;;;;;1.76;76.72;101557.09;3189480;87;21077;-73
2022/10/20 20:20:42;;;;;;;57.67;28.65;;;;;;;1.66;76.67;101554.70;3234206;84;21138;-75
2022/10/20 20:25:37;;;;;;;42.88;25.25;;;;;;;1.63;76.92;101540.02;3338342;82;21021;-74
2022/10/20 20:30:49;;;;;;;;;;;;;;;;;;;;;
2022/10/20 20:36:10;;;;;;;31.55;22.67;;;;;;;1.51;76.78;101542.64;3291371;84;21171;-74
2022/10/20 20:41:14;;;;;;;33.35;21.10;;;;;;;1.44;76.68;101538.30;3265896;84;21016;-74
2022/10/20 20:46:53;;;;;;;41.65;24.02;;;;;;;1.36;76.95;101539.07;3246296;86;21082;-73
2022/10/20 20:51:44;;;;;;;47.50;25.97;;;;;;;1.33;77.05;101529.89;3356183;83;20974;-73
2022/10/20 20:56:41;;;;;;;37.95;22.80;;;;;;;1.27;76.82;101532.93;3316967;83;21011;-73
2022/10/20 21:01:34;;;;;;;35.68;22.02;;;;;;;1.21;76.86;101524.81;3319605;84;20989;-72
2022/10/20 21:06:29;;;;;;;38.95;26.50;;;;;;;1.17;76.72;101521.56;3308052;83;21483;-73
2022/10/20 21:11:27;;;;;;;44.27;24.85;;;;;;;1.10;76.68;101519.37;3312479;83;21094;-72
2022/10/20 21:16:36;;;;;;;43.73;24.45;;;;;;;1.03;76.80;101523.17;3322904;83;21038;-73
2022/10/20 21:21:34;;;;;;;40.90;27.20;;;;;;;0.98;76.81;101521.97;3209722;87;21511;-73
2022/10/20 21:26:27;;;;;;;35.55;23.92;;;;;;;0.93;76.89;101513.99;3239338;85;21655;-73
2022/10/20 21:31:21;;;;;;;39.35;25.27;;;;;;;0.90;76.86;101510.33;3227424;85;20971;-72
2022/10/20 21:36:17;;;;;;;42.48;27.42;;;;;;;0.86;76.90;101504.11;3269152;85;21270;-72
2022/10/20 21:41:13;;;;;;;39.33;26.90;;;;;;;0.81;76.96;101496.91;3316457;82;20996;-74
2022/10/20 21:46:12;;;;;;;45.30;28.23;;;;;;;0.75;77.10;101486.73;3430415;81;21019;-74
2022/10/20 21:51:14;;;;;;;49.55;32.23;;;;;;;0.72;77.35;101477.55;3405355;81;21571;-73
2022/10/20 21:56:07;;;;;;;53.28;30.65;;;;;;;0.71;77.42;101477.45;3361130;81;20990;-73
2022/10/20 22:00:58;;;;;;;49.85;32.83;;;;;;;0.67;77.26;101478.91;3359553;81;21047;-72
2022/10/20 22:05:50;;;;;;;48.92;31.30;;;;;;;0.62;77.37;101478.09;3335686;81;21036;-72
2022/10/20 22:10:41;;;;;;;61.85;37.48;;;;;;;0.60;77.59;101472.87;3518475;77;21485;-71
2022/10/20 22:15:38;;;;;;;53.33;32.30;;;;;;;0.60;77.67;101471.59;3535624;78;21120;-72
2022/10/20 22:20:36;;;;;;;49.53;29.43;;;;;;;0.58;77.46;101464.60;3525562;77;21010;-72
2022/10/20 22:25:28;;;;;;;53.45;31.50;;;;;;;0.54;77.33;101466.06;3590493;77;22502;-72
2022/10/20 22:30:20;;;;;;;49.83;31.73;;;;;;;0.51;77.65;101463.28;3439179;79;21046;-72
2022/10/20 22:35:11;;;;;;;54.63;31.23;;;;;;;0.49;77.75;101454.61;3605445;77;22095;-72
2022/10/20 22:40:04;;;;;;;92.90;47.08;;;;;;;0.46;77.75;101450.16;3588925;78;20954;-72
2022/10/20 22:44:56;;;;;;;55.25;32.20;;;;;;;0.45;77.84;101438.53;3560992;77;20999;-72
2022/10/20 22:49:47;;;;;;;48.65;30.60;;;;;;;0.41;77.71;101433.59;3548216;77;20941;-71
2022/10/20 22:54:38;;;;;;;66.28;36.08;;;;;;;0.37;77.53;101435.05;3551649;77;20951;-72
2022/10/20 22:59:29;;;;;;;51.95;33.05;;;;;;;0.36;77.87;101424.73;3541465;78;21058;-72
2022/10/20 23:04:21;;;;;;;49.53;28.77;;;;;;;0.33;77.86;101420.28;3570667;77;20963;-72
2022/10/20 23:09:12;;;;;;;40.75;24.70;;;;;;;0.28;77.76;101422.91;3519728;78;20897;-72
2022/10/20 23:14:03;;;;;;;62.70;34.55;;;;;;;0.28;77.96;101402.84;3600563;77;21486;-72
2022/10/20 23:18:54;;;;;;;55.38;29.98;;;;;;;0.27;78.13;101395.94;3611441;77;20976;-71
2022/10/20 23:23:45;;;;;;;61.48;30.85;;;;;;;0.27;78.18;101396.84;3650855;77;21039;-73
2022/10/20 23:28:38;;;;;;;45.75;26.85;;;;;;;0.22;77.64;101405.86;3501429;79;20993;-72
2022/10/20 23:33:29;;;;;;;40.88;24.52;;;;;;;0.19;78.09;101411.64;3451508;80;21549;-72
2022/10/20 23:38:21;;;;;;;41.45;24.52;;;;;;;0.19;78.17;101410.76;3546338;78;21184;-72
2022/10/20 23:43:12;;;;;;;50.78;26.60;;;;;;;0.18;78.36;101407.32;3604047;77;20991;-72
2022/10/20 23:48:03;;;;;;;37.40;23.65;;;;;;;0.17;78.48;101408.48;3616040;77;20939;-73
2022/10/20 23:52:55;;;;;;;53.48;30.08;;;;;;;0.11;77.87;101420.46;3580387;77;20943;-72
2022/10/20 23:57:48;;;;;;;50.05;25.72;;;;;;;0.09;78.23;101412.16;3533485;77;20913;-72
